Time;durP1;ratioP1;P1;durP2;ratioP2;P2;SDS_P1;SDS_P2;PMS_P1;PMS_P2;Temp;Humidity;BMP_temperature;BMP_pressure;BME280_temperature;BME280_humidity;BME280_pressure;Samples;Min_cycle;Max_cycle;Signal;HPM_P1;HPM_P2
2023/06/23 00:01:37;;;;;;;13.63;4.10;;;;;;;-145.68;100.00;73112.03;10537593;28;20189;-74
2023/06/23 00:06:37;;;;;;;12.65;4.63;;;;;;;-145.68;100.00;73104.06;10537083;28;20199;-74
2023/06/23 00:11:37;;;;;;;8.05;4.20;;;;;;;-145.68;100.00;73118.03;10536924;28;20230;-74
2023/06/23 00:16:39;;;;;;;13.82;4.50;;;;;;;-145.68;100.00;73136.03;10536950;28;20186;-75
2023/06/23 00:21:40;;;;;;;15.52;5.43;;;;;;;-145.68;100.00;73130.03;10536868;28;20639;-75
2023/06/23 00:26:40;;;;;;;9.60;4.28;;;;;;;-145.68;100.00;73116.03;10537072;28;20187;-74
2023/06/23 00:31:40;;;;;;;7.55;3.67;;;;;;;-145.68;100.00;73090.06;10536257;28;20304;-75
2023/06/23 00:36:41;;;;;;;11.50;3.60;;;;;;;-145.68;100.00;73086.06;10536654;28;20191;-74
2023/06/23 00:41:41;;;;;;;11.65;3.83;;;;;;;-145.68;100.00;73084.06;10501388;28;20178;-74
2023/06/23 00:46:43;;;;;;;10.18;3.08;;;;;;;-145.68;100.00;73060.09;10536382;28;20269;-74
2023/06/23 00:51:45;;;;;;;7.30;3.22;;;;;;;-145.68;100.00;73040.09;10536234;28;20302;-74
2023/06/23 00:56:47;;;;;;;9.45;3.17;;;;;;;-145.68;100.00;73016.13;10505197;28;20198;-74
2023/06/23 01:01:47;;;;;;;4.78;3.22;;;;;;;-145.68;100.00;73016.13;10518044;28;20182;-74
2023/06/23 01:06:59;;;;;;;6.50;3.15;;;;;;;-145.68;100.00;73012.13;10500737;28;20187;-74
2023/06/23 01:12:12;;;;;;;2.55;2.35;;;;;;;-145.68;100.00;73032.09;10517607;28;20230;-74
2023/06/23 01:17:19;;;;;;;4.93;3.08;;;;;;;-145.68;100.00;73070.06;10518379;28;20195;-74
2023/06/23 01:22:36;;;;;;;6.30;4.32;;;;;;;-145.68;100.00;73108.06;10509070;28;20189;-75
2023/06/23 01:27:47;;;;;;;4.43;3.97;;;;;;;-145.68;100.00;73098.06;10508557;28;20252;-73
2023/06/23 01:32:49;;;;;;;6.03;4.07;;;;;;;-145.68;100.00;73082.06;10525447;28;20708;-74
2023/06/23 01:37:53;;;;;;;5.50;5.00;;;;;;;-145.68;100.00;73110.06;10524625;28;20214;-73
2023/06/23 01:42:56;;;;;;;6.18;5.20;;;;;;;-145.68;100.00;73088.06;10508454;28;20206;-74
2023/06/23 01:48:01;;;;;;;5.97;4.63;;;;;;;-145.68;100.00;73064.09;10508307;28;20281;-74
2023/06/23 01:53:03;;;;;;;6.88;6.00;;;;;;;-145.68;100.00;73066.09;10524536;28;20222;-74
2023/06/23 01:58:03;;;;;;;7.68;5.88;;;;;;;-145.68;100.00;73062.09;10524719;28;20183;-75
2023/06/23 02:03:05;;;;;;;6.43;3.97;;;;;;;-145.68;100.00;73036.09;10523879;28;20207;-75
2023/06/23 02:08:06;;;;;;;4.85;3.38;;;;;;;-145.68;100.00;73004.13;10523887;28;20183;-74
2023/06/23 02:13:07;;;;;;;6.60;3.38;;;;;;;-145.68;100.00;72992.13;10541566;28;20230;-74
2023/06/23 02:18:09;;;;;;;3.42;2.92;;;;;;;-145.68;100.00;72996.13;10523644;28;20187;-74
2023/06/23 02:23:10;;;;;;;4.03;3.17;;;;;;;-145.68;100.00;73008.13;10523493;28;20543;-74
2023/06/23 02:28:11;;;;;;;4.30;3.22;;;;;;;-145.68;100.00;73010.13;10522757;28;20191;-75
2023/06/23 02:33:11;;;;;;;4.82;3.80;;;;;;;-145.68;100.00;73032.09;10505313;28;20245;-75
2023/06/23 02:38:13;;;;;;;5.80;4.78;;;;;;;-145.68;100.00;73052.09;10541157;28;20248;-75
2023/06/23 02:43:19;;;;;;;5.40;4.45;;;;;;;-145.68;100.00;73054.09;10522541;28;20187;-74
2023/06/23 02:48:24;;;;;;;5.53;4.35;;;;;;;-145.68;100.00;73084.06;10505591;28;20815;-74
2023/06/23 02:53:28;;;;;;;7.60;4.75;;;;;;;-145.68;100.00;73108.06;10505212;28;20331;-75
2023/06/23 02:58:29;;;;;;;5.20;4.68;;;;;;;-145.68;100.00;73096.06;10521812;28;20182;-74
2023/06/23 03:03:33;;;;;;;7.50;6.38;;;;;;;-145.68;100.00;73102.06;10521613;28;20186;-75
2023/06/23 03:08:35;;;;;;;10.27;6.07;;;;;;;-145.68;100.00;73136.03;10505254;28;20190;-74
2023/06/23 03:13:36;;;;;;;9.95;7.22;;;;;;;-145.68;100.00;73138.03;10521279;28;20303;-75
2023/06/23 03:18:37;;;;;;;10.35;6.10;;;;;;;-145.68;100.00;73142.03;10521097;28;20602;-74
2023/06/23 03:23:39;;;;;;;8.45;5.82;;;;;;;-145.68;100.00;73136.03;10521147;28;20187;-75
2023/06/23 03:28:41;;;;;;;8.90;5.93;;;;;;;-145.68;100.00;73112.03;10520593;28;20562;-75
2023/06/23 03:33:43;;;;;;;12.98;5.90;;;;;;;-145.68;100.00;73106.06;10519979;28;20687;-75
2023/06/23 03:38:47;;;;;;;7.13;5.18;;;;;;;-145.68;100.00;73082.06;10520374;28;20211;-75
2023/06/23 03:43:50;;;;;;;7.50;5.40;;;;;;;-145.68;100.00;73068.06;10519868;28;20778;-74
2023/06/23 03:48:54;;;;;;;6.55;5.50;;;;;;;-145.68;100.00;73084.06;10519945;28;20290;-74
2023/06/23 03:53:54;;;;;;;7.70;6.22;;;;;;;-145.68;100.00;73088.06;10502956;28;20598;-75
2023/06/23 03:58:56;;;;;;;17.42;6.93;;;;;;;-145.68;100.00;73102.06;10519987;28;20186;-75
2023/06/23 04:03:57;;;;;;;13.00;8.05;;;;;;;-145.68;100.00;73122.03;10519020;28;20199;-74
2023/06/23 04:08:58;;;;;;;9.05;6.60;;;;;;;-145.68;100.00;73116.03;10537716;28;20252;-74
2023/06/23 04:13:59;;;;;;;8.60;6.38;;;;;;;-145.68;100.00;73110.06;10519008;28;20241;-75
2023/06/23 04:19:01;;;;;;;8.70;5.55;;;;;;;-145.68;100.00;73102.06;10536915;28;20548;-74
2023/06/23 04:24:03;;;;;;;10.23;4.97;;;;;;;-145.68;100.00;73100.06;10519171;28;20186;-75
2023/06/23 04:29:05;;;;;;;10.57;5.25;;;;;;;-145.68;100.00;73074.06;10518439;28;20701;-74
2023/06/23 04:34:05;;;;;;;8.43;5.13;;;;;;;-145.68;100.00;73046.09;10518249;28;20223;-74
2023/06/23 04:39:28;;;;;;;8.52;5.40;;;;;;;-145.68;100.00;73016.13;10501508;28;20693;-74
2023/06/23 04:44:32;;;;;;;4.97;4.30;;;;;;;-145.68;100.00;72968.16;10518868;28;20638;-74
2023/06/23 04:49:33;;;;;;;10.07;5.20;;;;;;;-145.68;100.00;72924.19;10518120;28;20271;-75
2023/06/23 04:54:42;;;;;;;10.73;4.85;;;;;;;-145.68;100.00;72858.22;10522991;28;20637;-74
2023/06/23 04:59:47;;;;;;;8.80;4.80;;;;;;;-145.68;100.00;72786.28;10526726;28;20726;-74
2023/06/23 05:04:49;;;;;;;9.10;5.10;;;;;;;-145.68;100.00;72724.34;10526603;28;20178;-75
2023/06/23 05:09:50;;;;;;;11.07;4.65;;;;;;;-145.68;100.00;72674.38;10526276;28;20642;-74
2023/06/23 05:14:51;;;;;;;10.07;4.30;;;;;;;-145.68;100.00;72644.41;10543884;28;20214;-74
2023/06/23 05:19:52;;;;;;;10.00;4.63;;;;;;;-145.68;100.00;72608.44;10526002;28;20202;-74
2023/06/23 05:24:55;;;;;;;8.15;4.60;;;;;;;-145.68;100.00;72602.44;10525865;28;20210;-74
2023/06/23 05:29:57;;;;;;;9.35;5.10;;;;;;;-145.68;100.00;72580.47;10525390;28;20557;-74
2023/06/23 05:35:00;;;;;;;9.25;4.60;;;;;;;-145.68;100.00;72556.47;10543136;28;20622;-74
2023/06/23 05:40:04;;;;;;;6.13;4.88;;;;;;;-145.68;100.00;72572.47;10525164;28;20710;-74
2023/06/23 05:45:05;;;;;;;9.50;5.22;;;;;;;-145.68;100.00;72624.41;10524762;28;20548;-73
2023/06/23 05:50:12;;;;;;;11.35;4.95;;;;;;;-145.68;100.00;72532.50;10542818;28;20197;-73
2023/06/23 05:55:13;;;;;;;14.63;5.10;;;;;;;-145.68;100.00;72474.53;10524284;28;20301;-74
2023/06/23 06:00:14;;;;;;;9.75;4.97;;;;;;;-145.68;100.00;72500.53;10524176;28;20654;-72
2023/06/23 06:05:17;;;;;;;13.45;5.35;;;;;;;-145.68;100.00;72406.59;10524018;28;20191;-72
2023/06/23 06:10:18;;;;;;;11.43;4.80;;;;;;;-145.68;100.00;72360.66;10542093;28;20256;-73
2023/06/23 06:15:18;;;;;;;11.00;5.20;;;;;;;-145.68;100.00;72504.53;10523679;28;20267;-72
2023/06/23 06:20:20;;;;;;;5.43;4.05;;;;;;;-145.68;100.00;72448.56;10523523;28;20194;-72
2023/06/23 06:25:21;;;;;;;5.18;3.65;;;;;;;-145.68;100.00;72478.53;10541352;28;20183;-72
2023/06/23 06:30:22;;;;;;;11.25;4.18;;;;;;;-145.68;100.00;72536.50;10541101;28;20548;-71
2023/06/23 06:35:23;;;;;;;6.10;3.40;;;;;;;-145.68;100.00;72566.47;10522647;28;20187;-72
2023/06/23 06:40:24;;;;;;;7.50;3.25;;;;;;;-145.68;100.00;72496.53;10522557;28;20207;-72
2023/06/23 06:45:25;;;;;;;3.78;3.00;;;;;;;-145.68;86.72;72346.66;10522555;28;20195;-72
2023/06/23 06:50:26;;;;;;;4.78;3.22;;;;;;;-145.68;89.92;72370.63;10522081;28;20608;-72
2023/06/23 06:55:26;;;;;;;8.52;2.70;;;;;;;-145.68;80.96;72356.66;10522293;28;20190;-73
2023/06/23 07:00:28;;;;;;;5.18;2.70;;;;;;;-145.68;77.27;72284.72;10539923;28;20187;-72
2023/06/23 07:05:28;;;;;;;5.10;2.50;;;;;;;-145.68;78.49;72322.69;10521675;28;20316;-72
2023/06/23 07:10:29;;;;;;;4.03;2.70;;;;;;;-145.68;78.63;72206.78;10521086;28;20328;-72
2023/06/23 07:15:30;;;;;;;4.72;2.00;;;;;;;-145.68;73.84;72292.72;10538400;28;20670;-71
2023/06/23 07:20:30;;;;;;;3.67;1.90;;;;;;;-145.68;71.98;72242.75;10539230;28;20198;-71
2023/06/23 07:25:30;;;;;;;4.05;1.40;;;;;;;-145.68;71.64;72374.63;10538841;28;20709;-72
2023/06/23 07:30:31;;;;;;;5.00;1.10;;;;;;;-145.68;70.59;72254.75;10538781;28;20588;-72
2023/06/23 07:35:32;;;;;;;2.83;0.98;;;;;;;-145.68;66.65;72182.81;10538217;28;20220;-71
2023/06/23 07:40:33;;;;;;;2.45;1.27;;;;;;;-145.68;65.51;72272.72;10538371;28;20214;-72
2023/06/23 07:45:33;;;;;;;2.10;1.10;;;;;;;-145.68;66.44;72240.75;10538077;28;20190;-71
2023/06/23 07:50:34;;;;;;;3.75;1.05;;;;;;;-145.68;68.76;72318.69;10537686;28;20618;-72
2023/06/23 07:55:34;;;;;;;2.65;1.13;;;;;;;-145.68;66.04;72248.75;10538043;28;20542;-72
2023/06/23 08:00:34;;;;;;;2.25;0.80;;;;;;;-145.68;65.90;72274.72;10537350;28;20564;-71
2023/06/23 08:05:36;;;;;;;1.35;1.00;;;;;;;-145.68;69.26;72398.63;10537591;28;20194;-72
2023/06/23 08:10:36;;;;;;;1.48;0.70;;;;;;;-145.68;67.36;72340.66;10518729;28;20980;-72
2023/06/23 08:15:37;;;;;;;1.58;0.82;;;;;;;-145.68;71.00;72442.56;10537278;28;20187;-72
2023/06/23 08:20:37;;;;;;;2.05;0.90;;;;;;;-145.68;73.19;72466.56;10536709;28;20222;-72
2023/06/23 08:25:37;;;;;;;5.13;1.00;;;;;;;-145.68;73.24;72504.53;10536828;28;20214;-72
2023/06/23 08:30:38;;;;;;;1.00;0.80;;;;;;;-145.68;71.20;72384.63;10536529;28;20228;-72
2023/06/23 08:35:38;;;;;;;0.80;0.80;;;;;;;-145.68;66.98;72340.66;10536055;28;20186;-72
2023/06/23 08:40:40;;;;;;;1.83;1.00;;;;;;;-145.68;66.55;72340.66;10536412;28;20218;-72
2023/06/23 08:45:44;;;;;;;2.83;1.10;;;;;;;-145.68;65.22;72294.72;10536210;28;20186;-72
2023/06/23 08:50:44;;;;;;;0.90;0.90;;;;;;;-145.68;66.87;72388.63;10518677;28;20190;-72
2023/06/23 08:55:45;;;;;;;0.90;0.90;;;;;;;-145.68;67.78;72418.59;10517160;28;20221;-72
2023/06/23 09:00:46;;;;;;;2.65;1.20;;;;;;;-145.68;73.22;72468.56;10535958;28;20198;-72
2023/06/23 09:05:46;;;;;;;1.42;1.33;;;;;;;-145.68;73.49;72498.53;10517877;28;20654;-72
2023/06/23 09:10:46;;;;;;;3.65;1.80;;;;;;;-145.68;73.18;72532.50;10535563;28;20295;-72
2023/06/23 09:15:48;;;;;;;1.92;1.83;;;;;;;-145.68;70.17;72486.53;10567733;28;20182;-72
2023/06/23 09:20:50;;;;;;;2.05;1.88;;;;;;;-145.68;65.92;72452.56;10575853;28;20182;-72
2023/06/23 09:25:54;;;;;;;1.90;1.70;;;;;;;-145.68;62.62;72370.63;10577953;28;20192;-73
2023/06/23 09:30:59;;;;;;;1.50;1.17;;;;;;;-145.68;61.78;72420.59;10577014;28;20325;-72
2023/06/23 09:36:04;;;;;;;1.50;1.40;;;;;;;-145.68;61.39;72454.56;10577260;28;20267;-74
2023/06/23 09:41:15;;;;;;;1.42;1.30;;;;;;;-145.68;60.62;72464.56;10582508;28;20241;-73
2023/06/23 09:46:17;;;;;;;2.03;1.73;;;;;;;-145.68;61.23;72516.50;10585406;28;20190;-72
2023/06/23 09:51:20;;;;;;;1.60;1.50;;;;;;;-145.68;62.42;72492.53;10584697;28;20261;-72
2023/06/23 09:56:21;;;;;;;1.73;1.60;;;;;;;-145.68;61.50;72480.53;10584823;28;20189;-73
2023/06/23 10:01:22;;;;;;;1.83;1.73;;;;;;;-145.68;60.31;72512.50;10584750;28;20193;-72
2023/06/23 10:06:34;;;;;;;4.55;1.73;;;;;;;-145.68;59.91;72550.47;10584106;28;20638;-72
2023/06/23 10:11:37;;;;;;;3.53;1.73;;;;;;;-145.68;61.74;72542.50;10584014;28;20282;-72
2023/06/23 10:16:45;;;;;;;1.70;1.60;;;;;;;-145.68;62.52;72616.44;10573758;28;20198;-72
2023/06/23 10:21:46;;;;;;;3.22;1.52;;;;;;;-145.68;64.25;72638.41;10541672;28;20183;-72
2023/06/23 10:26:50;;;;;;;3.28;1.67;;;;;;;-145.68;63.49;72610.44;10522821;28;20194;-72
2023/06/23 10:31:56;;;;;;;2.00;1.80;;;;;;;-145.68;63.51;72628.41;10523178;28;20222;-73
2023/06/23 10:36:59;;;;;;;1.63;1.52;;;;;;;-145.68;65.68;72656.41;10540886;28;20217;-72
2023/06/23 10:42:00;;;;;;;2.47;2.05;;;;;;;-145.68;67.54;72790.28;10522764;28;20607;-72
2023/06/23 10:47:00;;;;;;;2.10;2.00;;;;;;;-145.68;69.22;72780.28;10522636;28;20285;-72
2023/06/23 10:52:01;;;;;;;2.30;2.10;;;;;;;-145.68;71.32;72852.25;10539130;28;20309;-72
2023/06/23 10:57:14;;;;;;;2.75;2.53;;;;;;;-145.68;71.10;72838.25;10522449;28;20194;-72
2023/06/23 11:02:14;;;;;;;2.50;2.20;;;;;;;-145.68;71.65;72792.28;10539862;28;20179;-72
2023/06/23 11:07:24;;;;;;;2.22;1.88;;;;;;;-145.68;68.71;72724.34;10539905;28;20600;-72
2023/06/23 11:12:39;;;;;;;2.15;2.00;;;;;;;-145.68;66.99;72686.38;10539330;28;20266;-73
2023/06/23 11:17:47;;;;;;;2.58;2.17;;;;;;;-145.68;65.91;72732.34;10539330;28;20554;-72
2023/06/23 11:23:00;;;;;;;1.75;1.65;;;;;;;-145.68;64.61;72668.38;10539186;28;20187;-72
2023/06/23 11:28:38;;;;;;;4.75;1.83;;;;;;;-145.68;66.92;72772.31;10538940;28;20198;-72
2023/06/23 11:33:44;;;;;;;1.63;1.52;;;;;;;-145.68;69.35;72862.22;10520188;28;20280;-72
2023/06/23 11:38:45;;;;;;;1.75;1.63;;;;;;;-145.68;69.13;72814.28;10538506;28;20207;-72
2023/06/23 11:43:45;;;;;;;3.05;1.55;;;;;;;-145.68;68.09;72796.28;10538387;28;20175;-72
2023/06/23 11:48:46;;;;;;;1.50;1.40;;;;;;;-145.68;68.42;72770.31;10538062;28;20198;-72
2023/06/23 11:53:47;;;;;;;1.80;1.50;;;;;;;-145.68;69.50;72848.25;10537950;28;20250;-72
2023/06/23 11:58:50;;;;;;;1.55;1.30;;;;;;;-145.68;70.27;72882.22;10519547;28;20186;-72
2023/06/23 12:03:52;;;;;;;1.50;1.30;;;;;;;-145.68;71.88;72930.19;10519584;28;20265;-72
2023/06/23 12:08:54;;;;;;;1.40;1.30;;;;;;;-145.68;72.21;72932.19;10537640;28;20650;-73
2023/06/23 12:13:54;;;;;;;1.17;1.05;;;;;;;-145.68;72.36;72942.16;10537145;28;20238;-72
2023/06/23 12:18:59;;;;;;;1.40;1.30;;;;;;;-145.68;72.77;72928.19;10537285;28;20190;-72
2023/06/23 12:23:59;;;;;;;1.60;1.50;;;;;;;-145.68;72.96;72942.16;10536946;28;20218;-72
2023/06/23 12:29:09;;;;;;;1.40;1.30;;;;;;;-145.68;73.67;72952.16;10536571;28;20293;-72
2023/06/23 12:34:13;;;;;;;2.67;1.25;;;;;;;-145.68;76.26;72966.16;10536497;28;20363;-73
2023/06/23 12:39:16;;;;;;;1.90;1.50;;;;;;;-145.68;78.00;72976.16;10536568;28;20698;-72
2023/06/23 12:44:19;;;;;;;2.35;1.70;;;;;;;-145.68;76.97;72964.16;10518344;28;20183;-72
2023/06/23 12:49:21;;;;;;;1.52;1.30;;;;;;;-145.68;78.19;73040.09;10518338;28;20186;-73
2023/06/23 12:54:22;;;;;;;2.60;1.30;;;;;;;-145.68;78.02;72996.13;10536425;28;20222;-72
2023/06/23 12:59:23;;;;;;;2.30;1.30;;;;;;;-145.68;77.17;73016.13;10535694;28;20672;-72
2023/06/23 13:04:23;;;;;;;1.50;1.40;;;;;;;-145.68;77.19;73016.13;10536340;28;20558;-72
2023/06/23 13:09:24;;;;;;;1.67;1.40;;;;;;;-145.68;77.25;73010.13;10535924;28;20647;-72
2023/06/23 13:14:24;;;;;;;1.60;1.50;;;;;;;-145.68;80.84;73038.09;10538299;28;20306;-72
2023/06/23 13:19:24;;;;;;;1.17;1.08;;;;;;;-145.68;81.51;73030.09;10544310;28;20187;-71
2023/06/23 13:24:25;;;;;;;1.00;0.90;;;;;;;-145.68;79.82;73030.09;10543575;28;20186;-72
2023/06/23 13:29:25;;;;;;;1.15;0.93;;;;;;;-145.68;81.28;73056.09;10544128;28;20197;-72
2023/06/23 13:34:25;;;;;;;1.50;0.90;;;;;;;-145.68;80.77;72990.13;10525265;28;20222;-72
2023/06/23 13:39:26;;;;;;;1.67;0.90;;;;;;;-145.68;77.01;72956.16;10543576;28;20198;-71
2023/06/23 13:44:26;;;;;;;0.80;0.60;;;;;;;-145.68;75.67;72948.16;10543087;28;20245;-72
2023/06/23 13:49:27;;;;;;;1.55;0.90;;;;;;;-145.68;78.99;72956.16;10542981;28;20193;-72
2023/06/23 13:54:27;;;;;;;0.60;0.60;;;;;;;-145.68;82.29;73056.09;10530282;27;20210;-72
2023/06/23 13:59:28;;;;;;;3.47;1.00;;;;;;;-145.68;99.39;73186.00;10587589;27;20194;-72
2023/06/23 14:04:28;;;;;;;0.93;0.90;;;;;;;-145.68;100.00;73217.97;10543755;28;20662;-71
2023/06/23 14:09:28;;;;;;;1.17;0.70;;;;;;;-145.68;100.00;73200.00;10541092;28;20565;-72
2023/06/23 14:14:29;;;;;;;1.20;1.08;;;;;;;-145.68;100.00;73190.00;10541658;28;20638;-72
2023/06/23 14:19:29;;;;;;;4.07;0.80;;;;;;;-145.68;100.00;73182.00;10541854;28;20190;-72
2023/06/23 14:24:30;;;;;;;0.60;0.60;;;;;;;-145.68;100.00;73164.00;10541443;28;20545;-73
2023/06/23 14:29:30;;;;;;;0.95;0.70;;;;;;;-145.68;100.00;73142.03;10541374;28;20558;-73
2023/06/23 14:34:31;;;;;;;1.10;0.70;;;;;;;-145.68;100.00;73116.03;10540912;28;20225;-72
2023/06/23 14:39:31;;;;;;;0.82;0.65;;;;;;;-145.68;100.00;73192.00;10540921;28;20207;-73
2023/06/23 14:44:31;;;;;;;0.73;0.70;;;;;;;-145.68;100.00;73166.00;10540729;28;20213;-72
2023/06/23 14:49:32;;;;;;;3.53;0.80;;;;;;;-145.68;100.00;73213.97;10540647;28;20191;-73
2023/06/23 14:54:32;;;;;;;2.13;0.68;;;;;;;-145.68;100.00;73243.97;10539572;28;20218;-72
2023/06/23 14:59:33;;;;;;;1.25;0.93;;;;;;;-145.68;100.00;73235.97;10540357;28;20281;-72
2023/06/23 15:04:33;;;;;;;1.23;0.50;;;;;;;-145.68;100.00;73297.91;10539744;28;20182;-72
2023/06/23 15:09:33;;;;;;;1.70;0.52;;;;;;;-145.68;100.00;73299.91;10521832;28;20229;-73
2023/06/23 15:14:34;;;;;;;3.20;0.50;;;;;;;-145.68;100.00;73299.91;10539190;28;20230;-72
2023/06/23 15:19:34;;;;;;;0.40;0.40;;;;;;;-145.68;100.00;73333.91;10539545;28;20278;-72
2023/06/23 15:24:38;;;;;;;0.60;0.60;;;;;;;-145.68;100.00;73323.91;10539372;28;20214;-72
2023/06/23 15:29:38;;;;;;;0.65;0.50;;;;;;;-145.68;100.00;73351.88;10538656;28;20220;-72
2023/06/23 15:34:38;;;;;;;0.55;0.55;;;;;;;-145.68;100.00;73311.91;10538830;28;20271;-71
2023/06/23 15:39:40;;;;;;;0.73;0.63;;;;;;;-145.68;100.00;73303.91;10537411;28;20304;-72
2023/06/23 15:44:40;;;;;;;1.95;0.50;;;;;;;-145.68;100.00;73305.91;10538637;28;20278;-72
2023/06/23 15:49:41;;;;;;;0.60;0.60;;;;;;;-145.68;100.00;73303.91;10538042;28;20190;-72
2023/06/23 15:54:41;;;;;;;4.55;0.60;;;;;;;-145.68;100.00;73327.91;10538034;28;20237;-72
2023/06/23 15:59:43;;;;;;;0.50;0.50;;;;;;;-145.68;100.00;73321.91;10537984;28;20187;-72
2023/06/23 16:04:43;;;;;;;0.60;0.50;;;;;;;-145.68;100.00;73317.91;10537450;28;20302;-72
2023/06/23 16:09:43;;;;;;;0.50;0.50;;;;;;;-145.68;100.00;73405.84;10537746;28;20286;-73
2023/06/23 16:14:44;;;;;;;0.60;0.60;;;;;;;-145.68;100.00;73483.81;10536957;28;20225;-72
2023/06/23 16:19:44;;;;;;;1.40;0.65;;;;;;;-145.68;100.00;73519.78;10537431;28;20189;-73
2023/06/23 16:24:45;;;;;;;0.40;0.40;;;;;;;-145.68;100.00;73541.78;10537047;28;20198;-72
2023/06/23 16:29:45;;;;;;;0.60;0.60;;;;;;;-145.68;100.00;73551.75;10536420;28;20197;-72
2023/06/23 16:34:45;;;;;;;0.50;0.50;;;;;;;-145.68;100.00;73561.75;10536542;28;20705;-73
2023/06/23 16:39:46;;;;;;;1.55;0.50;;;;;;;-145.68;100.00;73555.75;10536268;28;20620;-72
2023/06/23 16:44:46;;;;;;;1.15;0.60;;;;;;;-145.68;100.00;73559.75;10536473;28;20217;-72
2023/06/23 16:49:47;;;;;;;0.50;0.50;;;;;;;-145.68;100.00;73563.75;10535401;28;20567;-72
2023/06/23 16:54:47;;;;;;;0.50;0.50;;;;;;;-145.68;100.00;73587.75;10536069;28;20229;-72
2023/06/23 16:59:47;;;;;;;0.50;0.50;;;;;;;-145.68;100.00;73573.75;10535958;28;20190;-72
2023/06/23 17:04:48;;;;;;;0.77;0.50;;;;;;;-145.68;100.00;73575.75;10535904;28;20186;-72
2023/06/23 17:09:48;;;;;;;0.73;0.50;;;;;;;-145.68;100.00;73591.75;10551518;28;20195;-72
2023/06/23 17:14:50;;;;;;;0.40;0.40;;;;;;;-145.68;100.00;73591.75;10535651;28;20673;-73
2023/06/23 17:19:50;;;;;;;1.42;1.15;;;;;;;-145.68;100.00;73617.72;10535406;28;20199;-72
2023/06/23 17:24:51;;;;;;;0.60;0.60;;;;;;;-145.68;100.00;73639.72;10535780;28;20252;-72
2023/06/23 17:29:52;;;;;;;0.70;0.70;;;;;;;-145.68;100.00;73653.69;10535390;28;20193;-72
2023/06/23 17:34:53;;;;;;;0.70;0.70;;;;;;;-145.68;100.00;73635.72;10535191;28;20770;-72
2023/06/23 17:39:53;;;;;;;0.40;0.40;;;;;;;-145.68;100.00;73647.72;10535019;28;20305;-73
2023/06/23 17:44:53;;;;;;;0.47;0.47;;;;;;;-145.68;100.00;73675.69;10534947;28;20183;-72
2023/06/23 17:49:54;;;;;;;1.65;0.57;;;;;;;-145.68;100.00;73685.69;10535179;28;20191;-72
2023/06/23 17:54:54;;;;;;;0.45;0.45;;;;;;;-145.68;100.00;73689.69;10534768;28;20237;-72
2023/06/23 17:59:54;;;;;;;0.68;0.68;;;;;;;-145.68;100.00;73671.69;10536739;28;20562;-72
2023/06/23 18:04:55;;;;;;;0.65;0.65;;;;;;;-145.68;100.00;73661.69;10542456;28;20191;-72
2023/06/23 18:09:55;;;;;;;1.50;1.25;;;;;;;-145.68;100.00;73703.69;10542046;28;20195;-72
2023/06/23 18:14:55;;;;;;;1.83;1.70;;;;;;;-145.68;100.00;73741.66;10541790;28;20283;-72
2023/06/23 18:19:56;;;;;;;4.03;1.70;;;;;;;-145.68;100.00;73769.63;10541509;28;20201;-72
2023/06/23 18:24:56;;;;;;;2.50;2.10;;;;;;;-145.68;100.00;73831.59;10523442;28;20192;-72
2023/06/23 18:29:56;;;;;;;3.53;2.90;;;;;;;-145.68;100.00;73867.59;10541414;28;20202;-72
2023/06/23 18:34:57;;;;;;;4.00;2.88;;;;;;;-145.68;100.00;73897.56;10540678;28;20219;-72
2023/06/23 18:39:58;;;;;;;4.18;3.22;;;;;;;-145.68;100.00;73917.56;10540922;28;20202;-72
2023/06/23 18:44:58;;;;;;;3.50;3.20;;;;;;;-145.68;100.00;73931.56;10540494;28;20212;-72
2023/06/23 18:49:58;;;;;;;3.13;2.83;;;;;;;-145.68;100.00;73949.56;10540315;28;20187;-72
2023/06/23 18:54:59;;;;;;;2.22;2.08;;;;;;;-145.68;100.00;73951.53;10540519;28;20310;-72
2023/06/23 19:00:03;;;;;;;2.03;1.80;;;;;;;-145.68;100.00;73963.53;10539774;28;20183;-72
2023/06/23 19:05:03;;;;;;;2.45;1.58;;;;;;;-145.68;100.00;73975.53;10540328;28;20587;-72
2023/06/23 19:10:04;;;;;;;2.00;1.80;;;;;;;-145.68;100.00;74001.53;10539318;28;20194;-72
2023/06/23 19:15:05;;;;;;;2.13;1.90;;;;;;;-145.68;100.00;74027.50;10538598;28;20329;-72
2023/06/23 19:20:09;;;;;;;3.63;2.55;;;;;;;-145.68;100.00;74041.50;10539350;28;20210;-72
2023/06/23 19:25:09;;;;;;;4.22;2.28;;;;;;;-145.68;100.00;74083.47;10538795;28;20737;-73
2023/06/23 19:30:10;;;;;;;1.80;1.70;;;;;;;-145.68;100.00;74091.47;10538974;28;20273;-73
2023/06/23 19:35:11;;;;;;;2.83;2.13;;;;;;;-145.68;100.00;74107.47;10538051;28;20226;-73
2023/06/23 19:40:11;;;;;;;5.30;2.25;;;;;;;-145.68;100.00;74117.47;10538956;28;20210;-73
2023/06/23 19:45:11;;;;;;;2.58;2.20;;;;;;;-145.68;100.00;74121.47;10538283;28;20642;-73
2023/06/23 19:50:12;;;;;;;2.70;2.33;;;;;;;-145.68;100.00;74137.47;10538159;28;20598;-73
2023/06/23 19:55:12;;;;;;;3.70;3.40;;;;;;;-145.68;100.00;74157.44;10538336;28;20245;-73
2023/06/23 20:00:13;;;;;;;5.25;4.75;;;;;;;-145.68;100.00;74173.44;10537445;28;20273;-73
2023/06/23 20:05:13;;;;;;;7.68;5.60;;;;;;;-145.68;100.00;74179.44;10538157;28;20278;-73
2023/06/23 20:10:14;;;;;;;6.35;5.30;;;;;;;-145.68;100.00;74195.44;10537085;28;20194;-74
2023/06/23 20:15:14;;;;;;;5.13;4.53;;;;;;;-145.68;100.00;74191.44;10537573;28;20218;-74
2023/06/23 20:20:15;;;;;;;5.30;4.80;;;;;;;-145.68;100.00;74199.44;10537069;28;20573;-74
2023/06/23 20:25:15;;;;;;;5.10;4.60;;;;;;;-145.68;100.00;74211.44;10536885;28;20210;-73
2023/06/23 20:30:16;;;;;;;5.25;4.47;;;;;;;-145.68;100.00;74221.44;10518764;28;20251;-74
2023/06/23 20:35:17;;;;;;;6.22;5.13;;;;;;;-145.68;100.00;74239.41;10536240;28;20264;-74
2023/06/23 20:40:18;;;;;;;5.90;5.30;;;;;;;-145.68;100.00;74237.41;10518820;28;20274;-74
2023/06/23 20:45:21;;;;;;;6.72;5.30;;;;;;;-145.68;100.00;74243.41;10536298;28;20331;-73
2023/06/23 20:50:21;;;;;;;7.13;6.43;;;;;;;-145.68;100.00;74251.41;10536321;28;20197;-73
2023/06/23 20:55:22;;;;;;;8.50;7.63;;;;;;;-145.68;100.00;74255.41;10535577;28;20225;-74
2023/06/23 21:00:22;;;;;;;10.90;7.47;;;;;;;-145.68;100.00;74247.41;10536031;28;20191;-72
2023/06/23 21:31:59;;;;;;;7.45;6.18;;;;;;;-145.68;100.00;74247.41;10406721;28;20696;-74
2023/06/23 21:36:59;;;;;;;7.20;6.10;;;;;;;-145.68;100.00;74251.41;10428090;28;20222;-74
2023/06/23 21:42:00;;;;;;;6.55;5.85;;;;;;;-145.68;100.00;74259.41;10541518;28;20187;-74
2023/06/23 21:47:00;;;;;;;9.50;6.43;;;;;;;-145.68;100.00;74271.41;10543128;28;20537;-74
2023/06/23 21:52:00;;;;;;;6.75;6.10;;;;;;;-145.68;100.00;74273.41;10558490;28;20228;-74
2023/06/23 21:57:01;;;;;;;10.13;6.97;;;;;;;-145.68;100.00;74283.41;10542423;28;20248;-74
2023/06/23 22:02:01;;;;;;;14.57;10.98;;;;;;;-145.68;100.00;74283.41;10542355;28;20186;-74
2023/06/23 22:07:02;;;;;;;15.52;11.57;;;;;;;-145.68;100.00;74289.41;10542140;28;20182;-73
2023/06/23 22:12:02;;;;;;;15.00;10.35;;;;;;;-145.68;100.00;74311.38;10541724;28;20210;-73
2023/06/23 22:17:03;;;;;;;14.55;11.05;;;;;;;-145.68;100.00;74309.38;10524001;28;20191;-74
2023/06/23 22:22:04;;;;;;;16.58;11.20;;;;;;;-145.68;100.00;74303.38;10541485;28;20194;-74
2023/06/23 22:27:04;;;;;;;17.85;13.45;;;;;;;-145.68;100.00;74311.38;10541713;28;20194;-73
2023/06/23 22:32:06;;;;;;;17.08;12.73;;;;;;;-145.68;100.00;74307.38;10540990;28;20218;-74
2023/06/23 22:37:07;;;;;;;17.55;11.98;;;;;;;-145.68;100.00;74323.38;10523109;28;20297;-74
2023/06/23 22:42:07;;;;;;;18.05;11.60;;;;;;;-145.68;100.00;74315.38;10540892;28;20183;-74
2023/06/23 22:47:07;;;;;;;13.23;10.60;;;;;;;-145.68;100.00;74309.38;10522563;28;20198;-75
2023/06/23 22:52:09;;;;;;;13.38;10.35;;;;;;;-145.68;100.00;74309.38;10540694;28;20219;-74
2023/06/23 22:57:10;;;;;;;12.77;10.18;;;;;;;-145.68;100.00;74305.38;10540224;28;20631;-75
2023/06/23 23:02:10;;;;;;;18.45;12.38;;;;;;;-145.68;100.00;74299.38;10540276;28;20277;-74